Provincetown III — WDB8185 — position and weather

sailwx.info

Track history (hours):
 
Tides and Currents Weather Stations Pressure Air Temp Water Temp Dewpoint Dewpoint Depression Visibility Wind Speed Wind Dir Waves Ship Positions

Provincetown III

Owner: MYSTIC FERRY LEASING LLC, BOSTON, MA. More information available from US FCC via Universal Licensing System and Coast Guard Vessel Documentation Center.

Last reported at 2017-Sep-21 14:59 UTC. Time now 2017-Sep-25 20:46 UTC.
Position N 42°21' W 071°02'.

Length 30 m; draft 2 m.

Type: Passenger vessel. MMSI: 366954420.

Date/timePositionNaut miles runAvg speedWind from/ knotsBaromVisibWave heightAir tempDewpointWater temp
2017-Sep-21 14:59N 42°21' W 071°02'  
2017-Sep-17 20:34N 42°21' W 071°02'0 0.0
2017-Sep-17 20:30N 42°21' W 071°02'816.2
2017-Sep-17 20:01N 42°19' W 070°52'1529.1
2017-Sep-17 19:31N 42°12' W 070°35'1828.9
2017-Sep-17 18:52N 42°02' W 070°14'2012.8
2017-Sep-17 17:20N 42°13' W 070°36'1028.8
2017-Sep-17 16:59N 42°18' W 070°48'1122.1
2017-Sep-17 16:30N 42°21' W 071°01'1 1.5
2017-Sep-17 16:00N 42°21' W 071°02'0 0.0
2017-Sep-16 00:57N 42°21' W 071°02'0 0.3
2017-Sep-16 00:31N 42°21' W 071°02'1325.8
2017-Sep-16 00:01N 42°17' W 070°46'3027.0
2017-Sep-15 22:54N 42°01' W 070°12'1816.5
2017-Sep-15 21:47N 42°11' W 070°33'828.6
2017-Sep-15 21:30N 42°15' W 070°42'1428.0
2017-Sep-15 21:00N 42°20' W 070°59'3 5.1
2017-Sep-15 20:30N 42°21' W 071°02'0 0.0
2017-Sep-14 16:14N 42°21' W 071°02'525.3
2017-Sep-14 16:01N 42°19' W 070°55'1428.1
2017-Sep-14 15:31N 42°13' W 070°38'1 0.6
2017-Sep-14 13:13N 42°14' W 070°40'629.0
2017-Sep-14 13:00N 42°17' W 070°47'1224.7
2017-Sep-14 12:30N 42°21' W 071°03'0 0.0
2017-Sep-14 12:00N 42°21' W 071°03'0 0.1
2017-Sep-14 11:30N 42°21' W 071°02'  
Track history (hours):
 
Tides and Currents Weather Stations Pressure Air Temp Water Temp Dewpoint Dewpoint Depression Visibility Wind Speed Wind Dir Waves Ship Positions

Provincetown III

Owner: MYSTIC FERRY LEASING LLC, BOSTON, MA. More information available from US FCC via Universal Licensing System and Coast Guard Vessel Documentation Center.

Last reported at 2017-Sep-21 14:59 UTC. Time now 2017-Sep-25 20:46 UTC.
Position N 42°21' W 071°02'.

Length 30 m; draft 2 m.

Type: Passenger vessel. MMSI: 366954420.

Date/timePositionNaut miles runAvg speedWind from/ knotsBaromVisibWave heightAir tempDewpointWater temp
2017-Sep-21 14:59N 42°21' W 071°02'  
2017-Sep-17 20:34N 42°21' W 071°02'0 0.0
2017-Sep-17 20:30N 42°21' W 071°02'816.2
2017-Sep-17 20:01N 42°19' W 070°52'1529.1
2017-Sep-17 19:31N 42°12' W 070°35'1828.9
2017-Sep-17 18:52N 42°02' W 070°14'2012.8
2017-Sep-17 17:20N 42°13' W 070°36'1028.8
2017-Sep-17 16:59N 42°18' W 070°48'1122.1
2017-Sep-17 16:30N 42°21' W 071°01'1 1.5
2017-Sep-17 16:00N 42°21' W 071°02'0 0.0
2017-Sep-16 00:57N 42°21' W 071°02'0 0.3
2017-Sep-16 00:31N 42°21' W 071°02'1325.8
2017-Sep-16 00:01N 42°17' W 070°46'3027.0
2017-Sep-15 22:54N 42°01' W 070°12'1816.5
2017-Sep-15 21:47N 42°11' W 070°33'828.6
2017-Sep-15 21:30N 42°15' W 070°42'1428.0
2017-Sep-15 21:00N 42°20' W 070°59'3 5.1
2017-Sep-15 20:30N 42°21' W 071°02'0 0.0
2017-Sep-14 16:14N 42°21' W 071°02'525.3
2017-Sep-14 16:01N 42°19' W 070°55'1428.1
2017-Sep-14 15:31N 42°13' W 070°38'1 0.6
2017-Sep-14 13:13N 42°14' W 070°40'629.0
2017-Sep-14 13:00N 42°17' W 070°47'1224.7
2017-Sep-14 12:30N 42°21' W 071°03'0 0.0
2017-Sep-14 12:00N 42°21' W 071°03'0 0.1
2017-Sep-14 11:30N 42°21' W 071°02'  

Dump ship's entire track history